Time;durP1;ratioP1;P1;durP2;ratioP2;P2;SDS_P1;SDS_P2;PMS_P1;PMS_P2;Temp;Humidity;BMP_temperature;BMP_pressure;BME280_temperature;BME280_humidity;BME280_pressure;Samples;Min_cycle;Max_cycle;Signal;HPM_P1;HPM_P2
2021/12/01 00:00:34;;;;;;;11.77;6.78;;;;;;;-2.38;92.24;94000.53;4974827;28;20447;-79
2021/12/01 00:02:59;;;;;;;14.07;7.07;;;;;;;-2.70;94.05;94022.50;4973868;28;20420;-78
2021/12/01 00:05:29;;;;;;;11.07;6.40;;;;;;;-3.59;100.00;93984.03;4974492;28;20033;-78
2021/12/01 00:07:55;;;;;;;16.27;7.38;;;;;;;-3.62;100.00;93995.47;4974454;28;20463;-78
2021/12/01 00:10:23;;;;;;;10.93;6.07;;;;;;;-3.76;100.00;93991.16;4974628;28;20035;-78
2021/12/01 00:12:49;;;;;;;13.38;6.38;;;;;;;-3.50;100.00;93970.22;4974474;28;20050;-79
2021/12/01 00:15:15;;;;;;;15.43;7.00;;;;;;;-3.86;100.00;93994.00;4974505;28;20030;-78
2021/12/01 00:17:41;;;;;;;14.80;7.38;;;;;;;-4.22;100.00;93970.75;4974403;28;20043;-78
2021/12/01 00:20:10;;;;;;;15.65;7.63;;;;;;;-4.03;100.00;94007.16;4974621;28;20041;-77
2021/12/01 00:22:36;;;;;;;14.07;6.55;;;;;;;-3.77;100.00;93980.97;4974505;28;20033;-78
2021/12/01 00:25:04;;;;;;;14.43;8.00;;;;;;;-3.66;100.00;93986.81;4973242;28;20381;-77
2021/12/01 00:27:30;;;;;;;15.27;7.60;;;;;;;-4.10;100.00;93984.16;4974420;28;20116;-77
2021/12/01 00:29:56;;;;;;;15.68;7.97;;;;;;;-4.00;100.00;93993.06;4974183;28;20407;-78
2021/12/01 00:32:22;;;;;;;11.82;6.65;;;;;;;-4.16;100.00;94007.00;4973740;28;20050;-79
2021/12/01 00:34:48;;;;;;;21.80;7.53;;;;;;;-4.18;100.00;94021.78;4974200;28;20116;-77
2021/12/01 00:37:13;;;;;;;16.35;8.50;;;;;;;-3.70;100.00;93993.34;4974442;28;20031;-79
2021/12/01 00:39:39;;;;;;;18.02;7.97;;;;;;;-4.14;100.00;93994.06;5005761;28;20436;-78
2021/12/01 00:42:06;;;;;;;14.00;7.55;;;;;;;-4.15;100.00;93979.31;4974344;28;20023;-78
2021/12/01 00:44:34;;;;;;;17.48;8.45;;;;;;;-4.07;100.00;94011.75;4974164;28;20455;-78
2021/12/01 00:49:28;;;;;;;13.82;7.80;;;;;;;-4.28;100.00;93973.84;4973969;28;20026;-79
2021/12/01 00:51:53;;;;;;;14.75;7.30;;;;;;;-4.12;100.00;94001.63;4973811;28;20045;-78
2021/12/01 00:54:19;;;;;;;16.60;8.05;;;;;;;-3.81;100.00;93967.75;4974193;28;20027;-78
2021/12/01 00:56:44;;;;;;;12.65;6.68;;;;;;;-4.04;100.00;93978.41;5005617;28;20023;-78
2021/12/01 00:59:10;;;;;;;14.13;7.63;;;;;;;-3.98;100.00;93956.31;4974153;28;20125;-77
2021/12/01 01:01:36;;;;;;;16.08;8.25;;;;;;;-4.02;100.00;93979.50;5005346;28;20026;-79
2021/12/01 01:04:01;;;;;;;16.70;8.75;;;;;;;-3.91;100.00;93974.75;4974046;28;20042;-77
2021/12/01 01:06:27;;;;;;;13.70;7.25;;;;;;;-4.03;100.00;93959.44;4974109;28;20034;-78
2021/12/01 01:08:52;;;;;;;15.30;8.00;;;;;;;-3.66;100.00;93983.41;4973929;28;20030;-78
2021/12/01 01:16:49;;;;;;;16.33;7.60;;;;;;;-3.78;100.00;93976.81;4974839;28;20097;-78
2021/12/01 01:19:16;;;;;;;12.57;7.53;;;;;;;-3.94;100.00;93986.16;4973804;28;20062;-79
2021/12/01 01:21:46;;;;;;;17.92;7.50;;;;;;;-4.17;100.00;93972.91;4973998;28;20049;-78
2021/12/01 01:24:12;;;;;;;16.92;8.02;;;;;;;-3.94;100.00;94012.69;4974220;28;20405;-78
2021/12/01 01:26:39;;;;;;;18.13;8.32;;;;;;;-3.52;99.99;94022.94;4973881;28;20065;-78
2021/12/01 01:29:06;;;;;;;15.15;7.68;;;;;;;-3.26;97.25;94005.41;4973715;28;20041;-79
2021/12/01 01:31:31;;;;;;;14.55;8.25;;;;;;;-3.44;99.00;93997.78;4973468;28;20042;-78
2021/12/01 01:33:59;;;;;;;16.77;7.85;;;;;;;-4.08;100.00;94013.69;4974353;28;20047;-78
2021/12/01 01:36:27;;;;;;;15.18;8.02;;;;;;;-4.06;100.00;94021.22;4973781;28;20118;-79
2021/12/01 01:38:53;;;;;;;14.30;8.25;;;;;;;-3.66;100.00;94039.88;4973425;28;20101;-78
2021/12/01 01:41:19;;;;;;;14.95;8.65;;;;;;;-3.35;100.00;94028.34;4973595;28;20457;-79
2021/12/01 01:43:47;;;;;;;14.55;7.82;;;;;;;-4.05;100.00;93982.94;4974451;28;20026;-79
2021/12/01 01:46:14;;;;;;;16.45;7.68;;;;;;;-3.93;100.00;94002.81;4977346;28;20030;-78
2021/12/01 01:48:48;;;;;;;12.75;6.80;;;;;;;-4.00;100.00;94002.94;4977431;28;20058;-78
2021/12/01 01:51:17;;;;;;;15.70;7.03;;;;;;;-4.14;100.00;93966.81;4977070;28;20452;-78
2021/12/01 01:53:43;;;;;;;13.43;6.70;;;;;;;-4.49;100.00;93943.13;4976841;28;20039;-78
2021/12/01 01:56:08;;;;;;;16.33;7.93;;;;;;;-4.03;100.00;93972.69;4976960;28;20030;-78
2021/12/01 01:58:34;;;;;;;15.55;7.07;;;;;;;-3.97;100.00;93944.53;4977685;28;20023;-77
2021/12/01 02:01:06;;;;;;;12.20;6.72;;;;;;;-4.05;100.00;93984.84;4978564;28;20030;-79
2021/12/01 02:03:34;;;;;;;12.65;6.28;;;;;;;-4.11;100.00;93976.59;4976486;28;20044;-79
2021/12/01 02:05:59;;;;;;;11.77;6.55;;;;;;;-4.14;100.00;93958.88;4977705;28;20030;-78
2021/12/01 02:08:33;;;;;;;13.35;6.68;;;;;;;-3.97;100.00;93979.00;4978077;28;20030;-78
2021/12/01 02:11:00;;;;;;;13.45;6.47;;;;;;;-3.36;98.89;93974.50;4978182;28;20376;-77
2021/12/01 02:13:27;;;;;;;12.60;6.88;;;;;;;-3.64;99.86;93971.25;4976728;28;20042;-79
2021/12/01 02:15:54;;;;;;;12.35;6.50;;;;;;;-3.47;98.93;93981.94;4976678;28;20022;-79
2021/12/01 02:18:20;;;;;;;13.95;6.38;;;;;;;-3.29;99.20;93955.03;4976453;28;20050;-79
2021/12/01 02:21:01;;;;;;;10.88;6.25;;;;;;;-3.09;97.53;94008.13;4975326;28;20472;-79
2021/12/01 02:23:27;;;;;;;9.57;5.40;;;;;;;-3.70;99.36;93967.56;4976449;28;20026;-79
2021/12/01 02:25:53;;;;;;;8.85;5.32;;;;;;;-3.99;100.00;93822.25;4976225;28;20051;-78
2021/12/01 02:28:19;;;;;;;18.83;6.57;;;;;;;-3.81;100.00;93935.19;5007828;28;20027;-78
2021/12/01 02:30:44;;;;;;;12.93;6.10;;;;;;;-3.33;99.80;93980.91;4976116;28;20089;-79
2021/12/01 02:33:10;;;;;;;11.48;6.28;;;;;;;-3.47;100.00;93904.97;4976102;28;20074;-78
2021/12/01 02:35:35;;;;;;;13.52;6.18;;;;;;;-3.37;98.88;93924.50;4976107;28;20027;-80
2021/12/01 02:38:03;;;;;;;11.82;5.97;;;;;;;-3.19;97.89;93950.69;4976074;28;20506;-80
2021/12/01 02:40:29;;;;;;;12.73;6.50;;;;;;;-2.79;95.04;93939.97;4976107;28;20038;-80
2021/12/01 02:42:54;;;;;;;13.63;7.18;;;;;;;-3.01;97.37;93953.72;4975134;28;20018;-80
2021/12/01 02:45:40;;;;;;;12.30;6.63;;;;;;;-3.27;99.21;93953.47;4975914;28;20027;-82
2021/12/01 02:48:07;;;;;;;12.10;6.95;;;;;;;-3.30;98.04;93913.72;4976477;28;20380;-81
2021/12/01 02:50:33;;;;;;;12.70;6.28;;;;;;;-3.42;97.87;93957.59;4976215;28;20023;-81
2021/12/01 02:52:58;;;;;;;8.52;5.47;;;;;;;-3.66;98.24;93930.38;4974752;28;20388;-81
2021/12/01 02:55:27;;;;;;;14.65;5.85;;;;;;;-3.68;100.00;93970.56;4974559;28;20038;-80
2021/12/01 02:57:54;;;;;;;18.67;5.78;;;;;;;-3.35;100.00;93944.16;4975029;28;20346;-80
2021/12/01 03:00:22;;;;;;;11.02;5.95;;;;;;;-3.11;98.51;94021.06;4975910;28;20046;-81
2021/12/01 03:02:48;;;;;;;14.75;6.70;;;;;;;-3.38;99.08;93886.59;4974747;28;20034;-80
2021/12/01 03:05:18;;;;;;;11.88;6.38;;;;;;;-3.51;100.00;93983.91;4975803;28;20026;-81
2021/12/01 03:07:45;;;;;;;9.55;5.63;;;;;;;-3.55;99.71;93962.00;4975591;28;20041;-81
2021/12/01 03:10:12;;;;;;;9.70;5.47;;;;;;;-3.17;96.99;93945.72;4975476;28;20026;-81
2021/12/01 03:12:39;;;;;;;12.43;5.65;;;;;;;-2.87;94.11;93978.47;4975677;28;20027;-81
2021/12/01 03:15:08;;;;;;;13.07;5.65;;;;;;;-3.43;98.11;93937.50;4975860;28;20031;-81
2021/12/01 03:17:34;;;;;;;10.23;5.65;;;;;;;-3.72;100.00;93927.44;4975300;28;20101;-82
2021/12/01 03:20:00;;;;;;;11.07;6.10;;;;;;;-3.23;99.22;93982.63;4974647;28;20038;-82
2021/12/01 03:22:26;;;;;;;10.90;4.60;;;;;;;-3.49;98.07;93907.28;5006858;28;20473;-80
2021/12/01 03:24:53;;;;;;;9.40;5.45;;;;;;;-3.40;98.74;93974.56;4975198;28;20030;-81
2021/12/01 03:27:19;;;;;;;9.85;5.57;;;;;;;-3.35;98.06;93935.44;4975558;28;20066;-82
2021/12/01 03:29:46;;;;;;;10.57;5.38;;;;;;;-3.17;96.21;93966.94;4975318;28;20093;-81
2021/12/01 03:32:13;;;;;;;7.82;5.00;;;;;;;-3.06;95.70;93948.88;4974942;28;20189;-82
2021/12/01 03:34:40;;;;;;;10.52;5.72;;;;;;;-3.75;100.00;93989.25;4975258;28;20027;-81
2021/12/01 03:37:05;;;;;;;9.65;5.07;;;;;;;-3.29;100.00;93971.72;4975188;28;20475;-80
2021/12/01 03:39:31;;;;;;;11.13;5.75;;;;;;;-3.12;99.16;93987.69;5006658;28;20026;-80
2021/12/01 03:41:56;;;;;;;6.53;4.10;;;;;;;-3.44;99.22;93983.75;4975031;28;20022;-81
2021/12/01 03:44:22;;;;;;;12.45;5.40;;;;;;;-3.26;98.83;93989.50;5006493;28;20428;-81
2021/12/01 03:46:47;;;;;;;8.05;5.07;;;;;;;-3.19;97.13;93996.56;4973962;28;20038;-81
2021/12/01 03:49:13;;;;;;;11.55;4.95;;;;;;;-3.37;98.42;93988.19;4975000;28;20058;-81
2021/12/01 03:51:39;;;;;;;8.30;4.97;;;;;;;-3.02;96.78;93978.78;5006374;28;20034;-81
2021/12/01 03:54:05;;;;;;;8.13;5.05;;;;;;;-2.91;94.64;93971.31;4974808;28;20031;-81
2021/12/01 03:56:33;;;;;;;9.90;4.97;;;;;;;-2.72;95.27;93982.31;4974803;28;20578;-81
2021/12/01 03:58:59;;;;;;;9.45;5.28;;;;;;;-2.95;98.46;93978.63;4975043;28;20456;-80
2021/12/01 04:01:25;;;;;;;11.82;5.90;;;;;;;-3.55;100.00;93940.78;4974687;28;20026;-80
2021/12/01 04:03:51;;;;;;;9.63;6.03;;;;;;;-3.55;100.00;93962.00;4975048;28;20120;-80
2021/12/01 04:06:16;;;;;;;10.85;5.40;;;;;;;-2.96;100.00;93971.81;4974524;28;20325;-81
2021/12/01 04:08:42;;;;;;;8.85;4.80;;;;;;;-2.54;99.43;93936.75;4974678;28;20033;-80
2021/12/01 04:11:08;;;;;;;6.95;4.22;;;;;;;-2.60;98.44;93941.81;4973298;28;20361;-81
2021/12/01 04:13:33;;;;;;;9.38;5.10;;;;;;;-2.38;98.39;93967.91;4974728;28;20032;-80
2021/12/01 04:15:59;;;;;;;7.60;4.75;;;;;;;-2.58;98.99;93930.75;5005918;28;20034;-81
2021/12/01 04:18:25;;;;;;;7.50;4.55;;;;;;;-2.46;97.30;93956.69;4974849;28;20102;-82
2021/12/01 04:20:50;;;;;;;2.40;1.52;;;;;;;-0.70;85.26;93907.94;5005795;28;20030;-81
2021/12/01 04:23:16;;;;;;;9.55;3.38;;;;;;;-1.09;85.12;93952.44;4973153;28;20121;-81
2021/12/01 04:25:42;;;;;;;6.53;2.90;;;;;;;-0.69;84.62;93928.09;4974289;28;20306;-80
2021/12/01 04:28:07;;;;;;;2.90;1.50;;;;;;;0.59;76.60;93926.25;4974600;28;20043;-80
2021/12/01 04:30:33;;;;;;;1.80;1.20;;;;;;;0.92;72.77;93912.50;4974235;28;20031;-79
2021/12/01 04:32:59;;;;;;;2.47;0.88;;;;;;;1.16;69.38;93926.13;4973018;28;20059;-80
2021/12/01 04:35:26;;;;;;;2.03;1.20;;;;;;;1.22;70.25;93929.69;4974139;28;20114;-81
2021/12/01 04:37:55;;;;;;;1.92;1.02;;;;;;;1.56;67.65;93909.31;4974153;28;20133;-81
2021/12/01 04:40:21;;;;;;;1.25;1.10;;;;;;;1.71;68.05;93928.22;4974043;28;20027;-81
2021/12/01 04:42:47;;;;;;;1.67;1.15;;;;;;;1.67;69.58;93941.00;4974054;28;20496;-82
2021/12/01 04:45:15;;;;;;;3.00;1.17;;;;;;;1.66;69.55;93953.63;5005632;28;20093;-83
2021/12/01 04:47:51;;;;;;;1.75;1.23;;;;;;;1.84;69.51;93946.81;4974188;28;20034;-82
2021/12/01 04:50:19;;;;;;;3.33;1.27;;;;;;;1.94;68.60;93945.66;4974470;28;20372;-82
2021/12/01 04:52:45;;;;;;;1.90;1.00;;;;;;;1.65;69.83;93917.38;4974031;28;20046;-81
2021/12/01 04:55:12;;;;;;;1.60;1.20;;;;;;;1.94;69.64;93963.66;4973993;28;20027;-81
2021/12/01 04:57:42;;;;;;;3.78;1.30;;;;;;;1.75;69.93;93958.25;5005746;28;20492;-82
2021/12/01 05:00:12;;;;;;;1.40;1.13;;;;;;;2.10;67.29;93941.22;4974161;28;20022;-83
2021/12/01 05:02:37;;;;;;;1.55;1.30;;;;;;;1.98;69.23;93959.66;5005501;28;20177;-84
2021/12/01 05:05:03;;;;;;;2.35;1.20;;;;;;;1.86;68.82;93963.94;4974359;28;20110;-86
2021/12/01 05:07:29;;;;;;;1.63;1.13;;;;;;;1.89;69.37;93970.31;4973947;28;20474;-85
2021/12/01 05:09:56;;;;;;;1.45;1.00;;;;;;;2.35;67.83;93975.03;4974078;28;20054;-86
2021/12/01 05:12:21;;;;;;;1.95;1.20;;;;;;;1.88;67.32;93994.88;4972977;28;20031;-86
2021/12/01 05:14:47;;;;;;;3.17;1.60;;;;;;;1.93;67.29;93978.22;4974121;28;20037;-85
2021/12/01 05:17:12;;;;;;;1.10;1.00;;;;;;;2.20;66.93;93983.63;4974403;28;20031;-85
2021/12/01 05:19:38;;;;;;;1.13;0.90;;;;;;;2.55;67.21;94017.44;4977547;28;20042;-85
2021/12/01 05:22:04;;;;;;;1.42;1.00;;;;;;;2.88;65.94;93980.06;4977376;28;20461;-85
2021/12/01 05:24:29;;;;;;;1.80;1.00;;;;;;;2.70;66.15;94004.22;4977857;28;20030;-86
2021/12/01 05:26:55;;;;;;;4.25;0.80;;;;;;;2.83;65.78;93993.31;4977778;28;20034;-87
2021/12/01 05:29:22;;;;;;;2.30;0.77;;;;;;;2.81;66.66;94025.94;4977731;28;20030;-86
2021/12/01 05:31:48;;;;;;;1.23;0.88;;;;;;;2.98;65.61;94001.50;4977717;28;20050;-89
2021/12/01 05:34:13;;;;;;;2.97;0.70;;;;;;;3.14;66.33;94003.84;5009133;28;20080;-88
2021/12/01 05:36:38;;;;;;;2.58;1.23;;;;;;;2.68;68.37;94010.00;5008778;28;20027;-87
2021/12/01 05:39:04;;;;;;;1.60;1.08;;;;;;;2.96;68.56;93977.81;4977767;28;20059;-87
2021/12/01 05:41:30;;;;;;;0.70;0.60;;;;;;;3.07;68.47;93982.72;4977211;28;20026;-87
2021/12/01 05:43:55;;;;;;;1.17;0.95;;;;;;;3.18;68.66;93992.97;4977323;28;20500;-88
2021/12/01 05:46:21;;;;;;;1.33;1.10;;;;;;;2.98;68.75;93996.13;4977731;28;20031;-87
2021/12/01 05:48:48;;;;;;;2.13;0.90;;;;;;;2.90;68.00;93989.59;4977450;28;20168;-87
2021/12/01 05:51:14;;;;;;;1.80;1.02;;;;;;;3.09;68.29;93979.59;4977284;28;20431;-88
2021/12/01 05:53:39;;;;;;;1.20;0.80;;;;;;;3.26;68.39;93974.63;4977681;28;20031;-89
2021/12/01 05:56:05;;;;;;;3.72;0.65;;;;;;;3.26;67.49;93993.38;4977904;28;20030;-88
2021/12/01 05:58:31;;;;;;;2.63;1.27;;;;;;;3.50;65.23;93991.53;4977331;28;20066;-88
2021/12/01 06:00:56;;;;;;;0.85;0.75;;;;;;;3.35;65.76;94004.09;4976467;28;20120;-88
2021/12/01 06:03:22;;;;;;;0.70;0.70;;;;;;;3.32;65.93;94005.75;4976385;28;20022;-88
2021/12/01 06:05:47;;;;;;;1.35;1.10;;;;;;;3.22;64.87;94012.34;4977387;28;20037;-89
2021/12/01 06:08:13;;;;;;;1.55;1.10;;;;;;;2.98;65.45;94001.50;5009071;28;20027;-88
2021/12/01 06:10:41;;;;;;;1.52;1.00;;;;;;;3.14;66.58;94022.63;4977813;28;20030;-89
2021/12/01 06:13:07;;;;;;;3.08;1.08;;;;;;;3.12;65.17;94024.25;4980538;28;20110;-89
2021/12/01 06:15:33;;;;;;;3.78;1.02;;;;;;;3.17;66.17;94002.94;5020115;28;20476;-88
2021/12/01 06:17:58;;;;;;;1.17;0.88;;;;;;;3.32;66.10;94024.53;4998510;28;20030;-88
2021/12/01 06:20:25;;;;;;;1.42;1.00;;;;;;;3.21;65.91;94008.91;4998149;28;20038;-86
2021/12/01 06:22:52;;;;;;;1.27;0.80;;;;;;;3.29;65.61;94020.06;5030338;28;20022;-88
2021/12/01 06:25:18;;;;;;;2.58;1.15;;;;;;;3.43;64.72;94017.94;4996928;28;20061;-89
2021/12/01 06:27:44;;;;;;;1.85;1.00;;;;;;;3.23;64.48;94029.91;4997097;28;20019;-89
2021/12/01 06:30:10;;;;;;;1.23;0.88;;;;;;;3.36;65.30;94040.47;4995761;28;20031;-87
2021/12/01 06:32:35;;;;;;;2.33;1.30;;;;;;;3.50;64.86;94039.09;4980896;28;20066;-88
2021/12/01 06:35:01;;;;;;;2.42;1.42;;;;;;;3.80;64.58;94063.47;4979731;28;20030;-89
2021/12/01 06:37:27;;;;;;;3.38;1.70;;;;;;;3.83;64.33;94059.84;4981751;28;20037;-88
2021/12/01 06:39:53;;;;;;;8.48;5.15;;;;;;;0.68;74.03;94038.47;4980234;28;20117;-88
2021/12/01 06:42:18;;;;;;;3.03;0.93;;;;;;;2.59;72.25;94060.16;4980954;28;20022;-89
2021/12/01 06:44:45;;;;;;;1.25;0.82;;;;;;;3.30;69.42;94037.66;4979282;28;20321;-89
2021/12/01 06:47:11;;;;;;;1.40;0.73;;;;;;;3.61;67.52;94076.19;4976907;28;20042;-89
2021/12/01 06:49:36;;;;;;;9.85;4.78;;;;;;;1.94;71.71;94060.03;5007860;28;20484;-89
2021/12/01 06:52:02;;;;;;;12.35;6.47;;;;;;;0.33;75.64;94067.88;4976694;28;20120;-89
2021/12/01 06:54:28;;;;;;;15.50;9.15;;;;;;;0.12;80.29;94096.72;4976503;28;20031;-89
2021/12/01 06:56:53;;;;;;;13.73;7.38;;;;;;;0.55;78.67;94115.25;4976254;28;20081;-89
2021/12/01 06:59:19;;;;;;;11.30;6.50;;;;;;;0.03;77.66;94077.19;4977010;28;20037;-87
2021/12/01 07:01:44;;;;;;;11.30;6.85;;;;;;;-0.18;79.19;94112.09;4976676;28;20612;-88
2021/12/01 07:04:12;;;;;;;14.73;7.07;;;;;;;-0.32;79.74;94122.44;4976679;28;20396;-88
2021/12/01 07:06:37;;;;;;;13.02;7.32;;;;;;;0.55;75.56;94101.91;4976681;28;20031;-88
2021/12/01 07:09:03;;;;;;;10.27;6.65;;;;;;;-0.14;78.74;94111.22;4976483;28;20113;-89
2021/12/01 07:11:28;;;;;;;13.77;7.45;;;;;;;1.06;74.04;94119.69;5007789;28;20038;-89
2021/12/01 07:13:55;;;;;;;14.50;6.63;;;;;;;1.47;73.59;94101.84;4976410;28;20027;-88
2021/12/01 07:16:21;;;;;;;13.80;7.97;;;;;;;0.99;74.82;94101.97;4976338;28;20433;-88
2021/12/01 07:18:46;;;;;;;13.45;6.68;;;;;;;1.61;72.78;94108.59;4976425;28;20110;-88
2021/12/01 07:21:12;;;;;;;13.63;7.88;;;;;;;1.61;73.73;94122.00;4976950;28;20030;-88
2021/12/01 07:23:38;;;;;;;12.68;7.35;;;;;;;0.69;77.00;94093.41;4976095;28;20379;-88
2021/12/01 07:26:04;;;;;;;14.38;8.63;;;;;;;0.12;80.61;94110.06;4975929;28;20023;-88
2021/12/01 07:28:30;;;;;;;16.25;7.88;;;;;;;0.48;78.23;94119.63;4976215;28;20092;-88
2021/12/01 07:30:55;;;;;;;15.95;7.40;;;;;;;0.07;78.10;94083.91;4975925;28;20042;-88
2021/12/01 07:33:21;;;;;;;16.15;7.88;;;;;;;1.23;74.07;94104.22;5007261;28;20491;-88
2021/12/01 07:35:47;;;;;;;13.50;7.53;;;;;;;1.44;71.94;94095.44;5007496;28;20037;-86
2021/12/01 07:38:13;;;;;;;15.63;8.27;;;;;;;1.96;71.02;94111.16;4976671;28;20030;-91
2021/12/01 07:40:38;;;;;;;13.60;7.78;;;;;;;1.80;70.17;94083.47;4975917;28;20038;-84
2021/12/01 07:43:04;;;;;;;16.60;7.88;;;;;;;2.49;67.12;94097.66;4976816;28;20023;-83
2021/12/01 07:45:30;;;;;;;14.68;7.80;;;;;;;3.21;66.21;94108.13;5010717;28;20470;-86
2021/12/01 07:47:55;;;;;;;15.48;8.27;;;;;;;2.56;68.29;94098.56;4978071;28;20037;-87
2021/12/01 07:50:21;;;;;;;16.85;9.55;;;;;;;2.04;69.53;94090.97;4983217;28;20069;-93
2021/12/01 07:52:46;;;;;;;14.68;8.05;;;;;;;1.60;72.04;94107.13;4977913;28;20034;-92
2021/12/01 07:55:12;;;;;;;15.30;8.35;;;;;;;1.80;71.14;94141.56;4975415;28;20041;-89
2021/12/01 07:57:38;;;;;;;18.00;8.93;;;;;;;2.82;70.08;94145.38;4975762;28;20027;-91
2021/12/01 08:00:05;;;;;;;15.73;9.00;;;;;;;2.31;72.37;94145.81;4975395;28;20098;-90
2021/12/01 08:02:30;;;;;;;17.08;8.63;;;;;;;1.63;72.39;94154.41;4976436;28;20070;-89
2021/12/01 08:04:57;;;;;;;20.83;10.75;;;;;;;1.01;76.31;94140.44;4976285;28;20104;-88
2021/12/01 08:07:24;;;;;;;23.88;11.05;;;;;;;0.73;78.20;94142.13;4974884;28;20030;-83
2021/12/01 08:09:50;;;;;;;17.65;10.25;;;;;;;1.28;76.98;94138.41;4974725;28;20440;-77
2021/12/01 08:12:15;;;;;;;15.23;9.00;;;;;;;1.60;74.50;94152.63;4974672;28;20135;-89
2021/12/01 08:14:41;;;;;;;16.00;9.23;;;;;;;2.22;71.97;94159.91;4974978;28;20122;-90
2021/12/01 08:17:07;;;;;;;20.27;11.05;;;;;;;2.40;70.90;94145.88;5007295;28;20026;-89
2021/12/01 08:19:33;;;;;;;23.70;10.93;;;;;;;2.27;72.16;94126.47;4977978;28;20026;-91
2021/12/01 08:21:59;;;;;;;27.65;12.45;;;;;;;2.75;70.20;94156.34;4980096;28;20027;-93
2021/12/01 08:24:25;;;;;;;23.10;10.27;;;;;;;2.79;68.83;94162.31;4985085;28;20038;-93
2021/12/01 08:26:51;;;;;;;25.98;12.63;;;;;;;1.93;73.26;94144.19;5014693;28;20030;-92
2021/12/01 08:29:17;;;;;;;23.30;11.27;;;;;;;1.79;72.62;94146.19;4979281;28;20060;-92
2021/12/01 08:31:43;;;;;;;32.92;12.95;;;;;;;2.67;70.11;94172.00;4975173;28;20096;-90
2021/12/01 08:34:10;;;;;;;18.58;8.32;;;;;;;2.17;71.32;94145.19;4975877;28;20030;-90
2021/12/01 08:36:36;;;;;;;17.83;9.48;;;;;;;1.66;73.64;94129.44;4974698;28;20380;-89
2021/12/01 08:39:04;;;;;;;17.35;9.80;;;;;;;2.24;71.44;94141.47;4975187;28;20126;-88
2021/12/01 08:41:29;;;;;;;14.20;8.38;;;;;;;1.65;72.49;94123.38;5007464;28;20034;-87
2021/12/01 08:43:55;;;;;;;33.40;15.32;;;;;;;2.05;72.88;94151.38;4976150;28;20459;-87
2021/12/01 08:46:20;;;;;;;24.75;10.30;;;;;;;2.74;68.88;94130.00;4975356;28;20510;-89
2021/12/01 08:48:46;;;;;;;15.23;8.82;;;;;;;2.03;71.08;94161.75;4975415;28;20027;-89
2021/12/01 08:51:12;;;;;;;16.77;9.40;;;;;;;3.11;70.00;94144.19;4975081;28;20118;-89
2021/12/01 08:53:41;;;;;;;20.30;9.55;;;;;;;4.75;64.95;94150.06;4978107;28;20034;-87
2021/12/01 08:56:08;;;;;;;21.55;10.52;;;;;;;5.95;59.81;94153.03;4978774;28;20165;-89
2021/12/01 08:58:34;;;;;;;18.27;10.15;;;;;;;4.77;61.80;94157.66;4978324;28;20058;-86
2021/12/01 09:01:00;;;;;;;16.58;9.38;;;;;;;5.55;59.71;94147.69;4978165;28;20388;-82
2021/12/01 09:03:26;;;;;;;17.33;9.25;;;;;;;6.01;56.75;94164.66;4978486;28;20041;-82
2021/12/01 09:05:52;;;;;;;22.70;11.88;;;;;;;7.76;53.65;94179.72;4977798;28;20046;-83
2021/12/01 09:08:21;;;;;;;23.77;11.77;;;;;;;6.71;53.99;94152.47;4977878;28;20031;-81
2021/12/01 09:10:48;;;;;;;19.70;9.45;;;;;;;7.22;52.85;94172.72;4978125;28;20037;-84
2021/12/01 09:13:15;;;;;;;20.05;9.77;;;;;;;7.90;52.46;94189.66;4977628;28;20375;-83
2021/12/01 09:15:42;;;;;;;15.00;9.00;;;;;;;6.32;55.37;94171.50;4977798;28;20035;-83
2021/12/01 09:18:07;;;;;;;22.35;10.32;;;;;;;5.29;59.49;94163.59;4978595;28;20427;-83
2021/12/01 09:20:33;;;;;;;18.17;9.25;;;;;;;5.80;58.52;94161.81;4977747;28;20065;-83
2021/12/01 09:23:00;;;;;;;14.82;8.57;;;;;;;6.80;60.12;94181.28;4977651;28;20469;-80
2021/12/01 09:25:25;;;;;;;16.23;9.27;;;;;;;6.64;54.47;94185.22;4977939;28;20430;-88
2021/12/01 09:27:51;;;;;;;17.50;8.55;;;;;;;4.86;59.33;94141.47;5009229;28;20035;-84
2021/12/01 09:30:18;;;;;;;21.35;9.65;;;;;;;7.15;53.03;94161.63;4977507;28;20106;-84
2021/12/01 09:32:44;;;;;;;16.15;9.20;;;;;;;8.62;49.04;94193.50;4977537;28;20113;-85
2021/12/01 09:35:12;;;;;;;17.40;8.90;;;;;;;9.44;47.77;94142.75;4977938;28;20457;-83
2021/12/01 09:37:38;;;;;;;12.63;8.15;;;;;;;10.28;46.07;94196.38;4977578;28;20027;-83
2021/12/01 09:40:12;;;;;;;12.75;8.02;;;;;;;11.75;43.60;94189.94;4977380;28;20026;-85
2021/12/01 09:42:41;;;;;;;21.02;12.68;;;;;;;11.08;43.14;94177.34;4977794;28;20087;-85
2021/12/01 09:45:08;;;;;;;18.75;8.15;;;;;;;10.85;44.67;94169.22;4977902;28;20073;-82
2021/12/01 09:47:33;;;;;;;12.57;8.05;;;;;;;12.21;40.77;94157.78;4977040;28;20464;-85
2021/12/01 09:49:59;;;;;;;15.13;9.55;;;;;;;9.85;45.19;94172.16;4977034;28;20030;-84
2021/12/01 09:52:24;;;;;;;18.08;10.98;;;;;;;7.11;50.92;94151.00;4976900;28;20387;-81
2021/12/01 09:54:50;;;;;;;18.40;10.65;;;;;;;6.75;52.78;94142.97;4976802;28;20165;-82
2021/12/01 09:57:16;;;;;;;19.90;10.23;;;;;;;6.98;52.51;94164.09;4976755;28;20037;-81
2021/12/01 09:59:42;;;;;;;16.20;9.80;;;;;;;9.43;48.36;94171.03;4977088;28;20368;-81
2021/12/01 10:02:09;;;;;;;15.02;8.45;;;;;;;9.33;48.03;94145.41;4976958;28;20101;-83
2021/12/01 10:04:34;;;;;;;15.05;8.45;;;;;;;9.91;45.52;94148.53;4975901;28;20026;-84
2021/12/01 10:07:19;;;;;;;13.93;8.25;;;;;;;9.33;45.23;94137.28;4977177;28;20033;-84
2021/12/01 10:09:57;;;;;;;20.73;9.35;;;;;;;8.70;48.67;94141.66;4977191;28;20035;-84
2021/12/01 10:12:24;;;;;;;15.38;8.80;;;;;;;11.01;44.44;94153.41;4975814;28;20027;-88
2021/12/01 10:14:51;;;;;;;13.77;9.00;;;;;;;11.35;42.78;94150.59;4976244;28;20478;-88
2021/12/01 10:17:34;;;;;;;18.55;8.93;;;;;;;12.40;40.23;94168.06;4977267;28;20093;-91
2021/12/01 10:20:18;;;;;;;16.77;10.07;;;;;;;11.88;42.61;94154.03;4977687;28;20096;-88
2021/12/01 10:23:11;;;;;;;21.27;11.15;;;;;;;12.45;40.98;94161.81;4976884;28;20110;-85
2021/12/01 10:25:37;;;;;;;20.13;10.77;;;;;;;9.49;46.65;94160.97;4975809;28;20476;-83
2021/12/01 10:28:02;;;;;;;23.05;12.75;;;;;;;10.05;47.25;94156.91;4976360;28;20023;-80
2021/12/01 10:30:45;;;;;;;24.00;12.82;;;;;;;9.67;48.41;94145.50;4976185;28;20030;-81
2021/12/01 10:33:16;;;;;;;18.58;11.48;;;;;;;9.06;49.21;94150.94;4976176;28;20049;-89
2021/12/01 10:35:42;;;;;;;27.35;13.05;;;;;;;7.90;51.98;94151.84;4977327;28;20457;-85
2021/12/01 10:38:09;;;;;;;23.75;12.63;;;;;;;8.23;53.12;94134.44;4976064;28;20473;-87
2021/12/01 10:40:37;;;;;;;20.67;10.77;;;;;;;8.40;50.61;94153.50;4976145;28;20109;-84
2021/12/01 10:43:07;;;;;;;15.68;10.68;;;;;;;7.32;54.66;94148.31;5007659;28;20022;-85
2021/12/01 10:45:37;;;;;;;28.38;11.93;;;;;;;7.24;54.81;94153.38;4976490;28;20022;-86
2021/12/01 10:48:06;;;;;;;21.85;11.50;;;;;;;6.47;57.67;94134.47;4975969;28;20046;-85
2021/12/01 10:50:34;;;;;;;18.83;11.48;;;;;;;6.39;58.86;94141.47;4975719;28;20105;-84
2021/12/01 10:53:07;;;;;;;21.85;10.95;;;;;;;6.69;56.86;94139.44;4976131;28;20038;-82
2021/12/01 10:55:34;;;;;;;18.85;10.48;;;;;;;6.98;56.48;94143.25;4976258;28;20467;-81
2021/12/01 10:58:04;;;;;;;21.98;11.38;;;;;;;6.09;58.40;94138.81;4976233;28;20023;-82
2021/12/01 11:00:32;;;;;;;19.52;11.25;;;;;;;6.65;58.10;94113.88;4976024;28;20163;-82
2021/12/01 11:03:12;;;;;;;23.60;10.43;;;;;;;5.91;60.02;94126.25;4975849;28;20101;-81
2021/12/01 11:05:40;;;;;;;20.70;10.70;;;;;;;4.64;63.83;94133.69;4975917;28;20030;-82
2021/12/01 11:08:29;;;;;;;16.00;10.18;;;;;;;5.29;63.78;94093.66;4975714;28;20031;-82
2021/12/01 11:11:13;;;;;;;19.02;9.55;;;;;;;5.41;61.32;94119.56;4975959;28;20357;-81
2021/12/01 11:13:43;;;;;;;15.82;9.95;;;;;;;5.23;62.35;94108.94;5007172;28;20452;-81
2021/12/01 11:16:10;;;;;;;17.92;10.15;;;;;;;4.94;64.12;94112.31;4975581;28;20022;-80
2021/12/01 11:18:43;;;;;;;18.98;10.23;;;;;;;4.83;64.19;94113.56;4976012;28;20026;-82
2021/12/01 11:21:11;;;;;;;20.35;10.88;;;;;;;5.09;64.16;94096.94;4975682;28;20460;-81
2021/12/01 11:23:43;;;;;;;16.58;9.50;;;;;;;4.82;64.16;94097.88;4975372;28;20081;-82
2021/12/01 11:26:14;;;;;;;27.98;13.23;;;;;;;5.07;64.44;94099.34;4975991;28;20492;-81
2021/12/01 11:28:48;;;;;;;;;;;;;;;5.54;65.17;94102.41;4976278;28;20100;-83
2021/12/01 11:31:22;;;;;;;20.50;11.63;;;;;;;4.84;64.37;94088.16;4976366;28;19914;-84
2021/12/01 11:33:49;;;;;;;20.92;12.13;;;;;;;5.61;63.70;94085.88;4975233;28;20392;-83
2021/12/01 11:36:20;;;;;;;28.48;12.75;;;;;;;4.92;67.37;94067.03;4975405;28;20023;-82